Time;durP1;ratioP1;P1;durP2;ratioP2;P2;SDS_P1;SDS_P2;PMS_P1;PMS_P2;Temp;Humidity;BMP_temperature;BMP_pressure;BME280_temperature;BME280_humidity;BME280_pressure;Samples;Min_cycle;Max_cycle;Signal;HPM_P1;HPM_P2
2021/07/18 00:01:48;;;;;;;24.87;17.77;;;;;;;21.43;95.45;100051.75;1795719;78;22835;-73
2021/07/18 00:04:15;;;;;;;21.07;16.00;;;;;;;21.42;95.46;100050.14;1795787;78;21500;-74
2021/07/18 00:06:42;;;;;;;20.77;17.23;;;;;;;21.39;95.39;100048.92;1796104;78;21037;-73
2021/07/18 00:09:10;;;;;;;24.63;16.63;;;;;;;21.36;95.35;100046.11;1786104;78;21036;-72
2021/07/18 00:11:39;;;;;;;25.03;17.43;;;;;;;21.31;95.36;100046.52;1799856;78;21073;-73
2021/07/18 00:14:09;;;;;;;21.20;17.03;;;;;;;21.28;95.43;100043.69;1819287;77;21084;-72
2021/07/18 00:16:37;;;;;;;20.90;15.60;;;;;;;21.26;95.52;100045.40;1819662;77;21490;-73
2021/07/18 00:19:06;;;;;;;22.63;16.53;;;;;;;21.27;95.64;100043.47;1798094;78;20990;-73
2021/07/18 00:21:34;;;;;;;21.07;15.03;;;;;;;21.25;95.71;100042.44;1822885;77;21118;-73
2021/07/18 00:24:01;;;;;;;18.67;15.87;;;;;;;21.26;95.71;100034.53;1827394;77;21053;-73
2021/07/18 00:26:28;;;;;;;22.90;15.47;;;;;;;21.27;95.59;100029.31;1826374;77;21094;-72
2021/07/18 00:28:55;;;;;;;21.67;17.53;;;;;;;21.28;95.37;100027.39;1825070;77;20995;-72
2021/07/18 00:31:22;;;;;;;21.03;18.07;;;;;;;21.29;95.16;100024.34;1804888;78;21548;-73
2021/07/18 00:33:49;;;;;;;24.87;18.43;;;;;;;21.30;94.95;100016.41;1796340;78;21045;-73
2021/07/18 00:36:17;;;;;;;21.50;18.23;;;;;;;21.32;94.75;100021.49;1825204;77;21027;-72
2021/07/18 00:38:44;;;;;;;24.43;17.17;;;;;;;21.32;94.37;100014.70;1823715;77;21676;-73
2021/07/18 00:41:13;;;;;;;19.67;16.47;;;;;;;21.32;93.96;100011.98;1813151;77;21066;-73
2021/07/18 00:43:40;;;;;;;22.17;16.80;;;;;;;21.34;93.66;100003.51;1820380;77;21589;-73
2021/07/18 00:46:07;;;;;;;18.73;15.73;;;;;;;21.34;93.37;100007.02;1819523;77;21017;-73
2021/07/18 00:48:34;;;;;;;23.27;14.80;;;;;;;21.36;93.10;99998.56;1819899;78;21116;-72
2021/07/18 00:51:00;;;;;;;22.50;16.20;;;;;;;21.38;92.93;100009.86;1821250;77;21541;-72
2021/07/18 00:53:27;;;;;;;23.43;16.40;;;;;;;21.38;92.78;100011.22;1821811;77;21008;-73
2021/07/18 00:55:55;;;;;;;18.90;14.67;;;;;;;21.38;92.74;100007.14;1818989;77;21132;-73
2021/07/18 00:58:24;;;;;;;23.17;15.30;;;;;;;21.37;92.56;100005.57;1821621;77;21078;-71
2021/07/18 01:00:51;;;;;;;24.40;16.10;;;;;;;21.38;92.43;100001.71;1802818;78;20986;-73
2021/07/18 01:03:18;;;;;;;17.57;14.10;;;;;;;21.38;92.31;99999.78;1822865;77;21498;-72
2021/07/18 01:05:45;;;;;;;18.00;14.63;;;;;;;21.39;92.13;99997.85;1817464;77;21045;-72
2021/07/18 01:08:12;;;;;;;20.10;14.50;;;;;;;21.39;91.88;100000.56;1820726;77;21551;-72
2021/07/18 01:10:40;;;;;;;18.47;14.50;;;;;;;21.39;91.58;99997.85;1821475;77;21023;-72
2021/07/18 01:13:07;;;;;;;18.90;13.77;;;;;;;21.39;91.27;99989.70;1819944;77;21595;-71
2021/07/18 01:15:34;;;;;;;19.63;15.27;;;;;;;21.39;90.97;99983.73;1801771;77;21102;-72
2021/07/18 01:18:01;;;;;;;20.83;14.97;;;;;;;21.41;90.73;99986.09;1821262;77;20972;-73
2021/07/18 01:20:28;;;;;;;21.03;14.33;;;;;;;21.41;90.59;99990.16;1821063;77;21024;-73
2021/07/18 01:22:55;;;;;;;21.33;14.43;;;;;;;21.41;90.50;99988.23;1821612;78;21050;-72
2021/07/18 01:25:22;;;;;;;21.13;14.20;;;;;;;21.42;90.31;99991.73;1793657;77;21257;-72
2021/07/18 01:27:49;;;;;;;25.00;16.07;;;;;;;21.40;90.06;99983.16;1805307;78;21052;-73
2021/07/18 01:30:16;;;;;;;27.87;16.30;;;;;;;21.41;89.81;99994.23;1822598;77;21026;-72
2021/07/18 01:32:42;;;;;;;22.40;14.77;;;;;;;21.41;89.59;99986.88;1821600;77;20966;-72
2021/07/18 01:35:11;;;;;;;25.27;15.30;;;;;;;21.44;89.52;100000.34;1799699;78;21727;-72
2021/07/18 01:37:38;;;;;;;24.07;15.20;;;;;;;21.45;89.66;99996.48;1821453;77;21047;-72
2021/07/18 01:40:08;;;;;;;24.33;15.93;;;;;;;21.44;89.64;99991.63;1816489;78;21123;-71
2021/07/18 01:42:35;;;;;;;21.70;15.47;;;;;;;21.40;89.50;99988.59;1822515;77;21077;-72
2021/07/18 01:45:02;;;;;;;25.57;16.23;;;;;;;21.37;89.44;99990.62;1804338;77;21593;-72
2021/07/18 01:47:29;;;;;;;26.93;15.93;;;;;;;21.35;89.50;99989.59;1820308;77;20971;-73
2021/07/18 01:49:55;;;;;;;25.10;16.30;;;;;;;21.35;89.64;99990.95;1822979;77;21537;-72
2021/07/18 01:52:22;;;;;;;29.87;16.77;;;;;;;21.37;89.80;99989.27;1822550;78;21067;-72
2021/07/18 01:54:49;;;;;;;28.87;17.50;;;;;;;21.39;89.93;99992.41;1822358;77;21107;-73
2021/07/18 01:57:18;;;;;;;28.63;17.13;;;;;;;21.40;89.95;99989.95;1817027;77;21500;-73
2021/07/18 01:59:45;;;;;;;28.03;16.63;;;;;;;21.41;89.96;99992.87;1819203;77;21019;-73
2021/07/18 02:02:14;;;;;;;26.10;17.63;;;;;;;21.40;89.97;99997.52;1823707;77;21038;-72
2021/07/18 02:04:40;;;;;;;34.93;18.20;;;;;;;21.42;90.09;100002.06;1804656;77;21110;-74
2021/07/18 02:07:07;;;;;;;30.90;17.70;;;;;;;21.44;90.23;100004.42;1793893;78;20942;-73
2021/07/18 02:09:36;;;;;;;26.67;17.97;;;;;;;21.44;90.34;100001.70;1823276;78;21017;-71
2021/07/18 02:12:06;;;;;;;26.97;18.53;;;;;;;21.45;90.39;100004.63;1824738;77;21029;-72
2021/07/18 02:14:36;;;;;;;27.00;17.93;;;;;;;21.44;90.40;100009.28;1823089;77;21030;-73
2021/07/18 02:17:03;;;;;;;31.30;18.40;;;;;;;21.45;90.39;100008.14;1822418;77;21119;-72
2021/07/18 02:19:30;;;;;;;25.50;17.73;;;;;;;21.45;90.39;100006.78;1821392;77;20916;-72
2021/07/18 02:21:58;;;;;;;27.77;17.97;;;;;;;21.46;90.44;100008.95;1823432;78;21070;-72
2021/07/18 02:24:25;;;;;;;25.17;16.87;;;;;;;21.45;90.54;100005.42;1815624;77;21082;-72
2021/07/18 02:26:53;;;;;;;28.47;18.00;;;;;;;21.47;90.54;100009.95;1820756;78;20931;-71
2021/07/18 02:29:22;;;;;;;30.20;18.83;;;;;;;21.47;90.60;99993.66;1816947;77;21116;-72
2021/07/18 02:31:53;;;;;;;27.90;18.10;;;;;;;21.50;90.76;99996.26;1821966;77;21312;-71
2021/07/18 02:34:20;;;;;;;27.37;20.03;;;;;;;21.53;91.01;99997.72;1821709;77;21541;-71
2021/07/18 02:36:47;;;;;;;26.73;19.40;;;;;;;21.56;91.29;100003.61;1818382;77;21015;-72
2021/07/18 02:39:14;;;;;;;27.67;19.00;;;;;;;21.59;91.46;100000.99;1821286;77;20979;-73
2021/07/18 02:41:42;;;;;;;24.60;18.93;;;;;;;21.63;91.57;100005.17;1822532;77;21249;-71
2021/07/18 02:44:08;;;;;;;28.30;18.40;;;;;;;21.67;91.60;100002.77;1808437;77;20994;-72
2021/07/18 02:46:36;;;;;;;27.57;18.47;;;;;;;21.70;91.59;100003.44;1818541;78;21042;-72
2021/07/18 02:49:04;;;;;;;26.17;18.93;;;;;;;21.73;91.44;100012.26;1819393;77;21241;-72
2021/07/18 02:51:30;;;;;;;25.80;19.63;;;;;;;21.77;91.32;100013.72;1822815;77;20988;-72
2021/07/18 02:53:57;;;;;;;30.40;19.33;;;;;;;21.82;91.16;100011.34;1820742;78;21829;-73
2021/07/18 02:56:24;;;;;;;24.70;17.83;;;;;;;21.87;90.99;100013.80;1821479;77;21019;-72
2021/07/18 02:58:51;;;;;;;26.10;18.33;;;;;;;21.89;90.72;100009.60;1820974;77;20975;-72
2021/07/18 03:01:19;;;;;;;22.20;18.77;;;;;;;21.93;90.53;100007.77;1821301;77;21043;-73
2021/07/18 03:03:47;;;;;;;22.87;17.70;;;;;;;21.96;90.27;100004.35;1822199;77;20958;-73
2021/07/18 03:06:15;;;;;;;23.60;17.00;;;;;;;22.01;89.96;100011.45;1815616;77;21046;-72
2021/07/18 03:08:43;;;;;;;23.20;16.73;;;;;;;22.02;89.48;100008.98;1817594;77;20995;-72
2021/07/18 03:11:09;;;;;;;21.30;16.30;;;;;;;22.05;89.26;100008.29;1822801;77;20936;-73
2021/07/18 03:13:38;;;;;;;21.17;17.03;;;;;;;22.08;88.90;99997.27;1819945;77;21106;-73
2021/07/18 03:16:06;;;;;;;20.10;16.73;;;;;;;22.09;88.49;99993.42;1822674;77;20971;-73
2021/07/18 03:18:33;;;;;;;20.00;16.43;;;;;;;22.10;88.17;99995.78;1819043;77;21116;-73
2021/07/18 03:21:00;;;;;;;21.13;15.93;;;;;;;22.13;88.05;100002.46;1821541;77;21010;-71
2021/07/18 03:23:27;;;;;;;20.13;16.50;;;;;;;22.19;87.90;100011.98;1820927;77;21027;-71
2021/07/18 03:25:54;;;;;;;22.37;16.63;;;;;;;22.23;87.71;100012.29;1820160;77;21062;-72
2021/07/18 03:28:22;;;;;;;19.07;15.23;;;;;;;22.27;87.50;100006.94;1816896;77;20986;-72
2021/07/18 03:30:50;;;;;;;20.43;16.00;;;;;;;22.32;87.35;100013.50;1819033;77;21102;-72
2021/07/18 03:33:17;;;;;;;20.63;15.97;;;;;;;22.37;87.02;100008.36;1799162;78;21182;-73
2021/07/18 03:35:44;;;;;;;17.07;14.97;;;;;;;22.38;86.68;100009.38;1816341;77;21079;-71
2021/07/18 03:38:11;;;;;;;19.93;15.70;;;;;;;22.40;86.36;100009.02;1820107;77;20991;-71
2021/07/18 03:40:38;;;;;;;19.53;16.37;;;;;;;22.41;86.06;100010.63;1823044;77;20932;-71
2021/07/18 03:43:05;;;;;;;19.40;15.33;;;;;;;22.42;85.68;100007.53;1821877;77;21590;-72
2021/07/18 03:45:32;;;;;;;18.83;15.13;;;;;;;22.43;85.54;100007.75;1820118;77;21006;-71
2021/07/18 03:47:59;;;;;;;20.77;15.73;;;;;;;22.45;85.29;99999.25;1785144;77;20978;-72
2021/07/18 03:50:26;;;;;;;20.67;16.10;;;;;;;22.48;85.26;99997.19;1822500;78;20975;-72
2021/07/18 03:52:53;;;;;;;22.47;17.23;;;;;;;22.55;85.21;99995.22;1812665;77;21803;-72
2021/07/18 03:55:21;;;;;;;21.13;16.13;;;;;;;22.61;84.98;99993.23;1822608;77;21550;-72
2021/07/18 03:57:48;;;;;;;19.37;15.30;;;;;;;22.68;84.76;99994.77;1819561;77;20908;-73
2021/07/18 04:00:17;;;;;;;21.37;16.27;;;;;;;22.76;84.58;99994.94;1827320;77;20930;-72
2021/07/18 04:02:44;;;;;;;17.63;15.77;;;;;;;22.86;84.43;99998.48;1823430;77;21052;-72
2021/07/18 04:05:12;;;;;;;21.13;16.63;;;;;;;22.96;84.05;99999.33;1821762;78;21475;-72
2021/07/18 04:07:39;;;;;;;18.70;15.13;;;;;;;23.07;83.70;100001.74;1819869;77;21142;-74
2021/07/18 04:10:08;;;;;;;17.33;15.50;;;;;;;23.17;83.41;100001.77;1811047;78;21260;-72
2021/07/18 04:12:36;;;;;;;18.67;16.53;;;;;;;23.27;82.97;100009.38;1820094;78;21466;-73
2021/07/18 04:15:06;;;;;;;20.70;16.50;;;;;;;23.37;82.49;100009.41;1822163;77;21038;-73
2021/07/18 04:17:33;;;;;;;18.60;16.10;;;;;;;23.47;82.14;100012.14;1817577;77;21018;-73
2021/07/18 04:20:00;;;;;;;20.93;16.63;;;;;;;23.56;81.92;100020.33;1823459;77;21103;-74
2021/07/18 04:22:27;;;;;;;19.50;15.70;;;;;;;23.61;81.55;100021.39;1824404;77;20927;-74
2021/07/18 04:24:56;;;;;;;21.20;16.20;;;;;;;23.62;81.21;100016.14;1823570;77;21005;-73
2021/07/18 04:27:23;;;;;;;18.50;16.50;;;;;;;23.63;81.07;100016.38;1817322;77;21066;-72
2021/07/18 04:29:50;;;;;;;20.80;15.43;;;;;;;23.64;80.76;100013.86;1822154;78;21035;-73
2021/07/18 04:32:17;;;;;;;20.87;16.70;;;;;;;23.69;80.72;100016.92;1823754;77;21592;-74
2021/07/18 04:34:44;;;;;;;17.60;15.67;;;;;;;23.73;80.51;100013.69;1820606;77;21443;-72
2021/07/18 04:37:11;;;;;;;20.60;16.97;;;;;;;23.77;80.06;100013.76;1818350;77;20975;-72
2021/07/18 04:39:39;;;;;;;19.77;17.43;;;;;;;23.81;79.93;99996.89;1820746;77;21067;-72
2021/07/18 04:42:05;;;;;;;18.90;16.20;;;;;;;23.91;79.81;100003.13;1821301;77;21007;-73
2021/07/18 04:44:34;;;;;;;19.03;17.03;;;;;;;24.04;79.50;100005.12;1822059;77;21004;-74
2021/07/18 04:47:01;;;;;;;20.37;16.47;;;;;;;24.14;78.97;100000.44;1820782;77;21540;-74
2021/07/18 04:49:28;;;;;;;21.10;16.80;;;;;;;24.23;78.53;100011.91;1821165;77;20944;-74
2021/07/18 04:51:58;;;;;;;19.63;16.93;;;;;;;24.33;77.91;100007.80;1821356;77;21049;-73
2021/07/18 04:54:26;;;;;;;20.00;16.27;;;;;;;24.43;77.42;100008.59;1820889;77;21464;-74
2021/07/18 04:56:53;;;;;;;18.27;16.10;;;;;;;24.50;76.96;100012.80;1816259;77;21500;-74
2021/07/18 04:59:20;;;;;;;22.03;16.87;;;;;;;24.56;76.56;100014.08;1819481;77;21089;-74
2021/07/18 05:01:47;;;;;;;20.23;16.10;;;;;;;24.63;76.24;100007.16;1821299;77;21479;-73
2021/07/18 05:04:13;;;;;;;21.03;17.10;;;;;;;24.69;75.81;100010.58;1819457;77;21015;-73
2021/07/18 05:06:42;;;;;;;19.43;15.93;;;;;;;24.73;75.70;100003.81;1821794;77;20975;-74
2021/07/18 05:09:10;;;;;;;20.27;17.03;;;;;;;24.82;75.60;100006.30;1818081;77;20995;-73
2021/07/18 05:11:38;;;;;;;21.20;17.90;;;;;;;24.89;75.59;100016.75;1820546;77;21109;-74
2021/07/18 05:14:06;;;;;;;21.67;18.37;;;;;;;24.95;75.17;100020.75;1820447;77;20990;-73
2021/07/18 05:16:34;;;;;;;19.53;16.83;;;;;;;25.00;74.64;100021.00;1822110;78;21517;-72
2021/07/18 05:19:02;;;;;;;19.23;17.23;;;;;;;25.09;74.46;100018.02;1812218;77;20952;-73
2021/07/18 05:21:29;;;;;;;20.57;16.60;;;;;;;25.14;73.97;100020.45;1820410;78;22090;-73
2021/07/18 05:23:56;;;;;;;20.53;16.63;;;;;;;25.16;74.25;100026.34;1816526;77;21046;-73
2021/07/18 05:26:24;;;;;;;18.93;16.93;;;;;;;25.18;73.82;100030.30;1813365;77;21501;-73
2021/07/18 05:28:51;;;;;;;17.90;16.20;;;;;;;25.23;73.96;100025.86;1816761;77;20955;-73
2021/07/18 05:31:18;;;;;;;19.17;16.70;;;;;;;25.29;73.75;100024.97;1820405;77;21054;-73
2021/07/18 05:33:45;;;;;;;21.13;18.03;;;;;;;25.34;73.87;100019.78;1821467;77;22119;-73
2021/07/18 05:36:12;;;;;;;18.60;16.60;;;;;;;25.41;73.88;100022.02;1817562;77;21112;-75
2021/07/18 05:38:39;;;;;;;21.33;17.70;;;;;;;25.50;73.40;100023.09;1817503;77;21050;-74
2021/07/18 05:41:06;;;;;;;19.87;17.43;;;;;;;25.61;73.09;100015.83;1823024;78;21506;-74
2021/07/18 05:43:32;;;;;;;20.53;16.83;;;;;;;25.71;72.85;100015.76;1820993;77;20928;-73
2021/07/18 05:45:59;;;;;;;19.60;17.40;;;;;;;25.81;72.08;100012.39;1821731;77;21013;-73
2021/07/18 05:48:26;;;;;;;18.87;16.63;;;;;;;25.92;71.74;100013.28;1819820;76;21426;-73
2021/07/18 05:50:53;;;;;;;22.53;17.77;;;;;;;26.00;71.29;100011.44;1821100;77;21081;-72
2021/07/18 05:53:22;;;;;;;21.47;17.33;;;;;;;26.02;70.62;100012.41;1821299;77;21026;-73
2021/07/18 05:55:49;;;;;;;20.67;18.47;;;;;;;26.02;70.61;100009.09;1794400;78;20935;-73
2021/07/18 05:58:15;;;;;;;20.37;17.43;;;;;;;26.11;70.80;100003.33;1820182;77;21454;-72
2021/07/18 06:00:42;;;;;;;21.00;17.57;;;;;;;26.17;69.96;100010.05;1814465;77;21562;-73
2021/07/18 06:03:09;;;;;;;21.30;17.87;;;;;;;26.22;69.97;100009.69;1816989;77;21075;-73
2021/07/18 06:05:37;;;;;;;19.90;17.77;;;;;;;26.29;69.58;100012.52;1792152;78;21051;-74
2021/07/18 06:08:07;;;;;;;18.30;16.47;;;;;;;26.38;69.15;100014.34;1818042;77;20967;-73
2021/07/18 06:10:33;;;;;;;18.90;17.07;;;;;;;26.53;68.57;100013.14;1819975;77;22165;-73
2021/07/18 06:13:00;;;;;;;22.77;18.43;;;;;;;26.67;68.07;100013.25;1822951;77;21050;-73
2021/07/18 06:15:27;;;;;;;19.23;16.03;;;;;;;26.75;67.60;100020.37;1820504;77;21557;-73
2021/07/18 06:17:54;;;;;;;18.70;16.77;;;;;;;26.83;67.66;100023.36;1823738;77;21034;-74
2021/07/18 06:20:20;;;;;;;17.57;15.73;;;;;;;26.93;67.25;100018.34;1817983;77;21066;-71
2021/07/18 06:22:48;;;;;;;17.33;15.43;;;;;;;27.02;67.05;100021.55;1820792;77;21131;-72
2021/07/18 06:25:15;;;;;;;18.43;16.53;;;;;;;27.09;66.25;100027.08;1819351;77;21054;-73
2021/07/18 06:27:41;;;;;;;17.17;15.37;;;;;;;27.15;65.87;100029.69;1819174;77;21092;-72
2021/07/18 06:30:10;;;;;;;18.40;15.60;;;;;;;27.19;65.23;100031.86;1815920;78;21035;-73
2021/07/18 06:32:37;;;;;;;18.57;15.10;;;;;;;27.22;64.85;100034.44;1819865;77;21015;-73
2021/07/18 06:35:05;;;;;;;17.60;15.80;;;;;;;27.25;64.83;100028.19;1820300;78;21145;-74
2021/07/18 06:37:32;;;;;;;19.30;15.07;;;;;;;27.23;64.07;100031.88;1821210;77;21541;-73
2021/07/18 06:40:02;;;;;;;17.97;16.00;;;;;;;27.24;64.41;100030.11;1817493;77;21054;-72
2021/07/18 06:42:28;;;;;;;17.80;15.40;;;;;;;27.35;64.07;100033.72;1821150;77;20979;-73
2021/07/18 06:44:58;;;;;;;17.73;15.83;;;;;;;27.47;63.94;100029.06;1819091;77;21555;-73
2021/07/18 06:47:28;;;;;;;17.43;15.63;;;;;;;27.59;64.04;100035.60;1820876;77;21123;-73
2021/07/18 06:49:57;;;;;;;18.60;15.95;;;;;;;27.74;64.04;100028.20;1818469;77;21022;-73
2021/07/18 06:52:27;;;;;;;17.47;15.67;;;;;;;27.85;63.66;100025.55;1818972;77;21074;-73
2021/07/18 06:54:53;;;;;;;20.83;17.20;;;;;;;27.92;64.08;100024.19;1817237;77;21146;-73
2021/07/18 06:57:20;;;;;;;18.30;16.23;;;;;;;28.06;64.10;100024.22;1819983;77;20991;-72
2021/07/18 06:59:49;;;;;;;17.57;15.87;;;;;;;28.15;63.45;100026.02;1815749;77;21513;-74
2021/07/18 07:02:16;;;;;;;18.50;16.60;;;;;;;28.26;63.32;100029.55;1799456;77;21033;-72
2021/07/18 07:04:43;;;;;;;18.37;16.47;;;;;;;28.40;62.87;100026.69;1819433;77;21577;-73
2021/07/18 07:07:12;;;;;;;18.97;15.73;;;;;;;28.52;62.33;100020.19;1820351;77;21534;-72
2021/07/18 07:09:39;;;;;;;17.95;15.35;;;;;;;28.58;62.12;100021.97;1817676;77;21059;-73
2021/07/18 07:12:07;;;;;;;16.93;15.13;;;;;;;28.68;61.83;100025.30;1818340;77;21480;-73
2021/07/18 07:14:35;;;;;;;16.48;14.83;;;;;;;28.78;61.30;100030.60;1815074;77;21026;-73
2021/07/18 07:17:02;;;;;;;16.23;14.27;;;;;;;28.85;60.51;100027.06;1821718;77;20991;-74
2021/07/18 07:19:29;;;;;;;16.73;14.90;;;;;;;28.94;60.66;100032.95;1819837;77;21471;-74
2021/07/18 07:21:57;;;;;;;17.35;14.85;;;;;;;29.03;60.07;100036.72;1818298;77;21053;-73
2021/07/18 07:24:23;;;;;;;16.75;14.47;;;;;;;29.11;59.78;100038.26;1821979;77;21114;-74
2021/07/18 07:26:50;;;;;;;17.77;15.85;;;;;;;29.16;59.27;100040.02;1818256;78;21034;-74
2021/07/18 07:29:19;;;;;;;17.90;14.25;;;;;;;29.24;59.27;100033.91;1820571;77;21042;-73
2021/07/18 07:31:46;;;;;;;16.60;13.62;;;;;;;29.30;58.58;100039.80;1816912;77;21085;-73
2021/07/18 07:34:13;;;;;;;19.60;14.25;;;;;;;29.31;58.37;100037.23;1812499;77;21050;-75
2021/07/18 07:36:41;;;;;;;14.90;13.35;;;;;;;29.36;58.44;100037.62;1820266;77;21017;-73
2021/07/18 07:39:08;;;;;;;15.03;13.13;;;;;;;29.48;58.13;100045.23;1820223;77;21054;-73
2021/07/18 07:41:35;;;;;;;13.00;11.70;;;;;;;29.53;56.75;100044.84;1817313;77;21168;-73
2021/07/18 07:44:02;;;;;;;13.93;11.65;;;;;;;29.54;55.88;100039.52;1819838;77;21540;-75
2021/07/18 07:46:28;;;;;;;12.28;10.82;;;;;;;29.60;55.56;100048.97;1808315;78;21041;-73
2021/07/18 07:48:56;;;;;;;12.58;10.43;;;;;;;29.70;54.19;100043.23;1822990;77;21128;-73
2021/07/18 07:51:22;;;;;;;12.90;10.40;;;;;;;29.73;53.62;100044.59;1820394;77;21136;-72
2021/07/18 07:53:50;;;;;;;13.08;10.88;;;;;;;29.80;52.94;100039.05;1786087;78;21002;-73
2021/07/18 07:56:18;;;;;;;11.43;10.20;;;;;;;29.90;53.23;100043.72;1767818;78;22069;-74
2021/07/18 07:58:45;;;;;;;13.95;11.12;;;;;;;30.02;52.56;100045.84;1817054;77;21546;-74
2021/07/18 08:01:12;;;;;;;11.28;10.18;;;;;;;30.05;51.90;100043.66;1821082;77;21757;-73
2021/07/18 08:03:39;;;;;;;10.68;9.50;;;;;;;30.12;50.90;100036.73;1734101;81;21512;-73
2021/07/18 08:06:05;;;;;;;12.60;10.65;;;;;;;30.22;51.23;100040.03;1821295;78;21070;-74
2021/07/18 08:08:33;;;;;;;11.73;10.38;;;;;;;30.29;50.70;100032.32;1823781;77;21015;-72
2021/07/18 08:10:59;;;;;;;10.65;9.55;;;;;;;30.35;50.37;100033.46;1793325;77;21095;-74
2021/07/18 08:13:27;;;;;;;10.38;8.95;;;;;;;30.43;49.41;100036.94;1819573;77;21519;-73
2021/07/18 08:15:54;;;;;;;10.55;9.48;;;;;;;30.53;47.73;100033.32;1821882;78;21010;-73
2021/07/18 08:18:20;;;;;;;11.48;10.20;;;;;;;30.55;47.04;100030.35;1820900;77;21094;-74
2021/07/18 08:20:47;;;;;;;12.28;10.30;;;;;;;30.59;48.03;100032.48;1820547;77;21046;-74
2021/07/18 08:23:13;;;;;;;11.45;10.35;;;;;;;30.72;47.93;100034.75;1818321;77;21153;-74
2021/07/18 08:25:40;;;;;;;10.58;9.20;;;;;;;30.84;47.42;100032.91;1821389;77;21592;-73
2021/07/18 08:28:06;;;;;;;11.25;10.05;;;;;;;30.95;47.41;100024.53;1821369;77;21018;-72
2021/07/18 08:30:33;;;;;;;11.35;9.95;;;;;;;31.10;47.05;100023.77;1822235;77;20955;-73
2021/07/18 08:33:00;;;;;;;10.85;9.13;;;;;;;31.27;46.35;100025.58;1817788;77;21106;-73
2021/07/18 08:35:26;;;;;;;9.85;8.85;;;;;;;31.41;45.63;100020.52;1822222;78;21176;-74
2021/07/18 08:37:53;;;;;;;18.32;9.55;;;;;;;31.55;45.43;100021.72;1823655;77;21525;-78
2021/07/18 08:40:19;;;;;;;11.25;9.23;;;;;;;31.68;44.39;100017.22;1818120;77;20978;-73
2021/07/18 08:42:46;;;;;;;10.75;8.45;;;;;;;31.79;44.40;100021.24;1821520;77;21640;-73
2021/07/18 08:45:12;;;;;;;10.05;9.05;;;;;;;31.90;43.28;100020.52;1818742;77;21479;-73
2021/07/18 08:47:40;;;;;;;9.60;8.63;;;;;;;31.97;43.53;100013.50;1822279;77;20932;-72
2021/07/18 08:50:08;;;;;;;10.80;8.73;;;;;;;32.05;43.73;100014.20;1797894;77;21078;-73
2021/07/18 08:52:35;;;;;;;9.78;8.78;;;;;;;32.17;43.05;100019.73;1821459;77;21002;-73
2021/07/18 08:55:03;;;;;;;8.95;8.10;;;;;;;32.21;42.70;100010.19;1820746;77;20959;-72
2021/07/18 08:57:30;;;;;;;9.65;8.65;;;;;;;32.32;41.99;100003.73;1821378;77;21093;-72
2021/07/18 08:59:56;;;;;;;8.68;7.83;;;;;;;32.32;41.99;100003.73;1819255;77;21140;-73
2021/07/18 09:02:23;;;;;;;9.85;8.55;;;;;;;32.34;41.48;100004.86;1821698;77;21199;-73
2021/07/18 09:04:50;;;;;;;9.48;7.92;;;;;;;32.42;41.83;100003.59;1816188;77;20911;-73
2021/07/18 09:07:19;;;;;;;10.98;9.15;;;;;;;32.57;42.34;99996.43;1814070;78;20983;-73
2021/07/18 09:09:48;;;;;;;11.00;8.88;;;;;;;32.74;41.53;99991.79;1806971;78;21135;-72
2021/07/18 09:12:16;;;;;;;10.58;8.43;;;;;;;32.87;40.88;99987.20;1815396;78;21013;-73
2021/07/18 09:14:48;;;;;;;9.25;8.35;;;;;;;32.93;39.91;99986.30;1816053;77;21877;-73
2021/07/18 09:17:20;;;;;;;9.80;8.60;;;;;;;32.86;40.08;99991.19;1822160;77;20992;-73
2021/07/18 09:19:47;;;;;;;9.75;8.13;;;;;;;32.88;40.09;99986.80;1816038;77;21163;-72
2021/07/18 09:22:21;;;;;;;8.68;7.87;;;;;;;32.99;39.97;99992.16;1795387;79;20947;-74
2021/07/18 09:24:51;;;;;;;9.78;8.75;;;;;;;33.05;39.87;99988.30;1822101;77;21208;-72
2021/07/18 09:27:27;;;;;;;10.05;8.70;;;;;;;32.99;40.08;99987.23;1783610;78;21128;-73
2021/07/18 09:30:19;;;;;;;10.55;9.00;;;;;;;33.00;40.29;99985.41;1799304;78;21375;-73
2021/07/18 09:32:46;;;;;;;10.72;9.63;;;;;;;33.11;40.48;99987.99;1796579;78;21109;-73
2021/07/18 09:35:17;;;;;;;9.68;8.70;;;;;;;33.16;39.39;99987.48;1795843;78;21121;-74
2021/07/18 09:37:46;;;;;;;10.85;8.60;;;;;;;33.20;39.21;99980.49;1780011;78;21051;-72
2021/07/18 09:40:16;;;;;;;8.73;7.83;;;;;;;33.21;38.85;99984.23;1774224;78;21549;-73
2021/07/18 09:42:56;;;;;;;11.25;8.20;;;;;;;33.22;38.65;99984.41;1797082;78;20998;-73
2021/07/18 09:45:31;;;;;;;8.78;7.67;;;;;;;33.24;39.00;99987.53;1796050;78;21005;-72
2021/07/18 09:48:02;;;;;;;8.95;8.05;;;;;;;33.35;38.67;99984.55;1784002;78;21030;-72
2021/07/18 09:50:44;;;;;;;8.88;7.97;;;;;;;33.38;38.27;99980.31;1766203;78;20951;-73
2021/07/18 09:53:17;;;;;;;9.75;8.60;;;;;;;33.52;39.01;99980.64;1797804;78;21964;-72
2021/07/18 09:56:10;;;;;;;9.65;8.73;;;;;;;33.68;37.62;99977.14;1794544;78;21276;-71
2021/07/18 09:58:40;;;;;;;10.43;8.55;;;;;;;33.84;36.97;99977.18;1789323;78;21068;-73
2021/07/18 10:01:09;;;;;;;10.75;8.45;;;;;;;33.91;36.57;99976.23;1792783;78;21076;-72
2021/07/18 10:03:36;;;;;;;9.45;8.45;;;;;;;34.01;36.71;99971.69;1765491;80;20994;-72
2021/07/18 10:06:12;;;;;;;11.40;10.00;;;;;;;34.10;36.74;99980.19;1798352;78;21586;-73
2021/07/18 10:08:49;;;;;;;12.53;9.60;;;;;;;34.05;35.72;99975.92;1821962;77;20993;-73
2021/07/18 10:11:18;;;;;;;12.28;10.25;;;;;;;33.94;35.77;99983.69;1819334;77;20990;-73
2021/07/18 10:13:47;;;;;;;13.18;10.95;;;;;;;33.81;36.59;99973.11;1823357;77;21588;-73
2021/07/18 10:16:16;;;;;;;12.10;9.83;;;;;;;33.80;36.87;99985.41;1816841;77;21532;-72
2021/07/18 10:18:45;;;;;;;17.98;11.25;;;;;;;33.83;36.98;99982.55;1821220;77;22552;-73
2021/07/18 10:21:14;;;;;;;12.75;11.28;;;;;;;33.76;37.40;99980.53;1820835;77;20992;-73
2021/07/18 10:23:42;;;;;;;12.13;10.70;;;;;;;33.71;37.43;99981.83;1787470;78;21073;-73
2021/07/18 10:26:13;;;;;;;13.25;11.63;;;;;;;33.75;37.92;99976.20;1794763;78;21059;-73
2021/07/18 10:28:41;;;;;;;13.45;10.75;;;;;;;33.72;37.04;99976.45;1762947;79;21064;-74
2021/07/18 10:31:19;;;;;;;12.40;10.70;;;;;;;33.60;37.77;99978.52;1821814;77;21131;-72
2021/07/18 10:33:47;;;;;;;13.78;10.98;;;;;;;33.53;39.68;99970.34;1782604;78;21498;-72
2021/07/18 10:36:14;;;;;;;10.35;9.00;;;;;;;33.50;39.10;99967.85;1794440;78;21585;-73
2021/07/18 10:38:41;;;;;;;10.03;9.03;;;;;;;33.62;37.84;99971.33;1796840;78;21486;-73
2021/07/18 10:41:08;;;;;;;10.25;9.25;;;;;;;33.63;38.28;99972.13;1795533;78;21035;-73
2021/07/18 10:43:50;;;;;;;10.45;9.05;;;;;;;33.79;38.49;99958.28;1794409;78;21251;-73
2021/07/18 10:46:35;;;;;;;10.23;9.23;;;;;;;34.08;37.67;99957.66;1795175;78;21049;-73
2021/07/18 10:49:01;;;;;;;13.25;9.28;;;;;;;34.37;37.30;99950.04;1758948;78;21202;-73
2021/07/18 10:51:36;;;;;;;10.10;9.10;;;;;;;34.58;37.07;99943.95;1820461;77;20944;-73
2021/07/18 10:54:12;;;;;;;10.03;9.03;;;;;;;34.65;35.88;99938.24;1808179;77;21043;-72
2021/07/18 10:56:43;;;;;;;11.63;9.75;;;;;;;34.70;35.84;99930.77;1816732;77;21202;-73
2021/07/18 10:59:35;;;;;;;10.20;8.85;;;;;;;34.68;35.66;99937.34;1816243;77;37422;-73
2021/07/18 11:02:13;;;;;;;10.55;9.55;;;;;;;34.71;35.97;99939.86;1816785;78;20946;-74
2021/07/18 11:04:52;;;;;;;10.48;9.18;;;;;;;34.78;35.08;99932.14;1778958;79;21015;-72
2021/07/18 11:07:26;;;;;;;10.73;9.37;;;;;;;34.83;34.83;99923.11;1781660;79;21585;-74
2021/07/18 11:10:12;;;;;;;10.10;8.78;;;;;;;34.92;34.33;99924.64;1781502;79;21175;-73
2021/07/18 11:12:45;;;;;;;9.25;8.30;;;;;;;35.00;34.40;99925.37;1782896;80;21516;-75
2021/07/18 11:15:23;;;;;;;10.58;8.58;;;;;;;35.00;33.51;99916.27;1783966;79;21015;-73
2021/07/18 11:18:18;;;;;;;8.90;8.10;;;;;;;34.84;34.35;99916.33;1747112;79;21007;-73
2021/07/18 11:20:54;;;;;;;11.63;8.65;;;;;;;34.71;34.47;99912.13;1773196;79;21719;-74